.
WxDataArchive / Data Records for 2012-01-07
2012-01-06 January 2012 2012-01-08

Data Records for Saturday, 07 January 2012

Time	Temp	Chill	HIndex	Humid	Dewpt	 Wind 	HiWind	WindDir	Rain 	Barom 
-----	----	-----	------	-----	-----	------	------	-------	-----	----- 
00:00	41.6	41.6	41.6	76	34.6	0	1	248	0.00	29.713 
00:05	41.5	41.5	41.5	76	34.5	0	3	248	0.00	29.713 
00:10	41.6	41.6	41.6	76	34.6	0	3	248	0.00	29.713 
00:15	41.8	41.8	41.8	76	34.8	0	2	248	0.00	29.713 
00:20	41.9	41.9	41.9	75	34.6	0	3	248	0.00	29.713 
00:25	42.1	42.1	42.1	75	34.8	1	4	248	0.00	29.713 
00:30	42.2	42.2	42.2	74	34.5	1	2	248	0.00	29.713 
00:35	42.3	42.3	42.3	74	34.6	1	4	248	0.00	29.713 
00:40	42.3	42.3	42.3	74	34.6	0	2	248	0.00	29.713 
00:45	42.3	42.3	42.3	74	34.6	0	2	248	0.00	29.712 
00:50	42.2	42.2	42.2	74	34.5	1	3	248	0.00	29.712 
00:55	42.2	42.2	42.2	74	34.5	1	3	248	0.00	29.712 
01:00	42.2	42.2	42.2	74	34.5	1	3	248	0.00	29.712 
01:05	42.1	42.1	42.1	74	34.4	1	3	248	0.00	29.712 
01:10	41.9	41.9	41.9	74	34.2	1	4	248	0.00	29.712 
01:15	41.9	41.9	41.9	75	34.6	0	3	248	0.00	29.711 
01:20	41.8	41.8	41.8	75	34.5	1	3	248	0.00	29.711 
01:25	41.8	41.8	41.8	75	34.5	1	3	248	0.00	29.711 
01:30	41.6	41.6	41.6	75	34.3	1	4	248	0.00	29.713 
01:35	41.5	41.5	41.5	75	34.2	0	2	248	0.00	29.713 
01:40	41.5	41.5	41.5	75	34.2	1	4	248	0.00	29.713 
01:45	41.3	41.3	41.3	76	34.3	1	3	248	0.00	29.713 
01:50	41.2	41.2	41.2	76	34.2	0	2	248	0.00	29.713 
01:55	41.1	41.1	41.1	76	34.1	0	1	248	0.00	29.713 
02:00	40.8	40.8	40.8	76	33.8	0	2	248	0.00	29.715 
02:05	40.6	40.6	40.6	77	34.0	1	3	248	0.00	29.715 
02:10	40.6	40.6	40.6	77	34.0	0	1	248	0.00	29.715 
02:15	40.5	40.5	40.5	77	33.9	0	3	248	0.00	29.718 
02:20	40.3	40.3	40.3	78	34.0	0	1	248	0.00	29.718 
02:25	40.3	40.3	40.3	78	34.0	0	1	248	0.00	29.718 
02:30	40.2	40.2	40.2	78	33.9	0	1	248	0.00	29.717 
02:35	40.2	40.2	40.2	78	33.9	0	1	248	0.00	29.717 
02:40	40.2	40.2	40.2	79	34.2	0	2	248	0.00	29.717 
02:45	40.3	40.3	40.3	78	34.0	1	2	248	0.00	29.730 
02:50	40.2	40.2	40.2	78	33.9	1	3	248	0.00	29.730 
02:55	40.2	40.2	40.2	78	33.9	1	3	248	0.00	29.730 
03:00	40.2	40.2	40.2	79	34.2	1	3	248	0.00	29.742 
03:05	40.1	40.1	40.1	79	34.1	1	2	248	0.00	29.742 
03:10	39.9	39.9	39.9	79	33.9	0	2	248	0.00	29.742 
03:15	39.9	39.9	39.9	79	33.9	1	3	248	0.00	29.743 
03:20	39.9	39.9	39.9	79	33.9	1	3	248	0.00	29.743 
03:25	39.8	39.8	39.8	79	33.8	1	3	248	0.00	29.743 
03:30	39.8	39.8	39.8	79	33.8	0	2	248	0.00	29.748 
03:35	39.6	39.6	39.6	80	33.9	1	2	248	0.00	29.748 
03:40	39.5	39.5	39.5	80	33.9	1	2	248	0.00	29.748 
03:45	39.5	39.5	39.5	80	33.9	1	2	248	0.00	29.756 
03:50	39.3	39.3	39.3	80	33.7	1	2	248	0.00	29.756 
03:55	39.2	39.2	39.2	80	33.6	1	2	248	0.00	29.756 
04:00	39.2	39.2	39.2	80	33.6	1	3	248	0.00	29.763 
04:05	39.2	39.2	39.2	80	33.6	1	3	248	0.00	29.763 
04:10	39.2	39.2	39.2	80	33.6	1	2	248	0.00	29.763 
04:15	39.2	39.2	39.2	80	33.6	1	3	248	0.00	29.768 
04:20	39.3	39.3	39.3	79	33.3	2	4	248	0.00	29.768 
04:25	39.5	39.5	39.5	78	33.2	1	2	248	0.00	29.768 
04:30	39.5	39.5	39.5	78	33.2	2	4	248	0.00	29.773 
04:35	39.5	39.5	39.5	77	32.9	1	3	248	0.00	29.773 
04:40	39.5	39.5	39.5	77	32.9	1	3	248	0.00	29.773 
04:45	39.5	39.5	39.5	77	32.9	1	3	248	0.00	29.775 
04:50	39.5	39.5	39.5	77	32.9	1	3	248	0.00	29.775 
04:55	39.5	39.5	39.5	76	32.6	1	3	248	0.00	29.775 
05:00	39.5	39.5	39.5	76	32.6	1	3	248	0.00	29.781 
05:05	39.5	39.5	39.5	76	32.6	1	4	248	0.00	29.781 
05:10	39.6	39.6	39.6	75	32.3	2	4	315	0.00	29.781 
05:15	39.6	39.6	39.6	74	32.0	1	3	270	0.00	29.793 
05:20	39.6	39.6	39.6	74	32.0	1	3	338	0.00	29.793 
05:25	39.6	39.6	39.6	73	31.7	1	4	270	0.00	29.793 
05:30	39.6	39.6	39.6	73	31.7	1	4	270	0.00	29.795 
05:35	39.5	39.5	39.5	73	31.6	1	3	270	0.00	29.795 
05:40	39.5	39.5	39.5	73	31.6	1	2	270	0.00	29.795 
05:45	39.5	39.5	39.5	73	31.6	1	3	270	0.00	29.808 
05:50	39.5	39.5	39.5	73	31.6	1	3	270	0.00	29.808 
05:55	39.5	39.5	39.5	73	31.6	1	3	315	0.00	29.808 
06:00	39.3	39.3	39.3	72	31.0	1	3	315	0.00	29.815 
06:05	39.2	39.2	39.2	72	30.9	1	2	292	0.00	29.815 
06:10	39.2	39.2	39.2	72	30.9	1	3	292	0.00	29.815 
06:15	39.1	39.1	39.1	72	30.8	1	3	292	0.00	29.826 
06:20	38.9	38.9	38.9	72	30.7	1	3	292	0.00	29.826 
06:25	38.8	38.8	38.8	72	30.6	1	2	292	0.00	29.826 
06:30	38.8	38.8	38.8	72	30.6	1	3	292	0.00	29.833 
06:35	38.8	38.8	38.8	72	30.6	1	3	292	0.00	29.833 
06:40	38.6	38.6	38.6	72	30.4	1	4	292	0.00	29.833 
06:45	38.6	38.6	38.6	72	30.4	1	4	292	0.00	29.842 
06:50	38.5	38.5	38.5	72	30.3	1	2	292	0.00	29.842 
06:55	38.3	38.3	38.3	72	30.1	1	3	292	0.00	29.842 
07:00	38.0	38.0	38.0	72	29.8	1	2	292	0.00	29.849 
07:05	37.9	37.9	37.9	73	30.0	1	2	292	0.00	29.849 
07:10	37.6	37.6	37.6	73	29.7	0	2	292	0.00	29.849 
07:15	37.5	37.5	37.5	73	29.6	1	3	292	0.00	29.861 
07:20	37.2	37.2	37.2	74	29.7	0	2	292	0.00	29.861 
07:25	37.0	37.0	37.0	74	29.5	1	2	292	0.00	29.861 
07:30	36.9	36.9	36.9	74	29.4	1	2	292	0.00	29.866 
07:35	36.8	36.8	36.8	75	29.6	1	2	292	0.00	29.866 
07:40	36.6	36.6	36.6	76	29.8	1	2	292	0.00	29.866 
07:45	36.5	36.5	36.5	76	29.7	1	2	292	0.00	29.877 
07:50	36.3	36.3	36.3	77	29.8	0	2	292	0.00	29.877 
07:55	36.2	36.2	36.2	77	29.7	1	2	292	0.00	29.877 
08:00	36.2	36.2	36.2	77	29.7	1	3	292	0.00	29.883 
08:05	36.2	36.2	36.2	77	29.7	1	2	292	0.00	29.883 
08:10	36.2	36.2	36.2	77	29.7	1	3	292	0.00	29.883 
08:15	36.0	36.0	36.0	77	29.5	1	2	292	0.00	29.895 
08:20	35.9	35.9	35.9	77	29.4	0	2	292	0.00	29.895 
08:25	35.8	35.8	35.8	77	29.3	0	1	292	0.00	29.895 
08:30	35.8	35.8	35.8	78	29.6	0	2	292	0.00	29.899 
08:35	35.6	35.6	35.6	78	29.4	1	2	292	0.00	29.899 
08:40	35.6	35.6	35.6	78	29.4	1	2	292	0.00	29.899 
08:45	35.6	35.6	35.6	78	29.4	1	2	292	0.00	29.908 
08:50	35.8	35.8	35.8	78	29.6	1	2	292	0.00	29.908 
08:55	35.9	35.9	35.9	78	29.7	1	2	292	0.00	29.908 
09:00	36.2	36.2	36.2	77	29.7	1	2	292	0.00	29.914 
09:05	36.5	36.5	36.5	77	30.0	1	2	292	0.00	29.914 
09:10	36.6	36.6	36.6	76	29.8	1	3	292	0.00	29.914 
09:15	36.9	36.9	36.9	75	29.7	2	3	292	0.00	29.927 
09:20	37.2	37.2	37.2	74	29.7	1	4	292	0.00	29.927 
09:25	37.5	37.5	37.5	73	29.6	2	4	248	0.00	29.927 
09:30	37.8	37.8	37.8	72	29.6	2	4	248	0.00	29.930 
09:35	38.0	38.0	38.0	71	29.4	2	4	270	0.00	29.930 
09:40	38.5	38.5	38.5	70	29.6	2	5	270	0.00	29.930 
09:45	38.8	38.8	38.8	69	29.5	2	4	248	0.00	29.943 
09:50	38.9	38.9	38.9	68	29.3	2	4	270	0.00	29.943 
09:55	39.2	39.2	39.2	68	29.5	2	4	270	0.00	29.943 
10:00	39.3	39.3	39.3	67	29.3	2	5	292	0.00	29.947 
10:05	39.5	39.5	39.5	67	29.5	2	5	248	0.00	29.947 
10:10	39.8	39.8	39.8	66	29.4	2	5	270	0.00	29.947 
10:15	39.9	39.9	39.9	65	29.1	2	5	248	0.00	29.958 
10:20	40.1	40.1	40.1	65	29.3	2	4	270	0.00	29.958 
10:25	40.2	40.2	40.2	65	29.4	2	4	248	0.00	29.958 
10:30	40.5	40.5	40.5	65	29.7	2	4	315	0.00	29.959 
10:35	40.6	40.6	40.6	64	29.4	3	6	315	0.00	29.959 
10:40	40.6	40.6	40.6	64	29.4	3	6	270	0.00	29.959 
10:45	40.8	40.8	40.8	64	29.6	2	5	270	0.00	29.970 
10:50	40.8	40.8	40.8	64	29.6	3	7	270	0.00	29.970 
10:55	40.9	40.9	40.9	64	29.7	3	6	338	0.00	29.970 
11:00	41.1	41.1	41.1	64	29.9	3	5	270	0.00	29.974 
11:05	40.9	40.9	40.9	64	29.7	3	6	292	0.00	29.974 
11:10	41.2	41.2	41.2	64	30.0	3	5	270	0.00	29.974 
11:15	41.2	41.2	41.2	64	30.0	2	5	315	0.00	29.976 
11:20	41.5	41.5	41.5	63	29.9	3	6	270	0.00	29.976 
11:25	41.5	41.5	41.5	64	30.2	2	6	315	0.00	29.976 
11:30	41.9	41.9	41.9	64	30.6	2	5	338	0.00	29.976 
11:35	42.1	42.1	42.1	63	30.4	2	7	315	0.00	29.976 
11:40	41.9	41.9	41.9	62	29.8	3	6	292	0.00	29.976 
11:45	41.9	41.9	41.9	62	29.8	3	4	315	0.00	29.977 
11:50	42.1	42.1	42.1	62	30.0	3	7	270	0.00	29.977 
11:55	42.3	42.3	42.3	62	30.2	2	5	270	0.00	29.977 
12:00	42.5	42.5	42.5	62	30.4	2	5	248	0.00	29.975 
12:05	42.6	42.6	42.6	61	30.1	2	4	270	0.00	29.975 
12:10	42.8	42.8	42.8	61	30.3	2	5	270	0.00	29.975 
12:15	42.9	42.9	42.9	61	30.4	2	5	270	0.00	29.976 
12:20	43.1	43.1	43.1	61	30.6	2	4	315	0.00	29.976 
12:25	43.1	43.1	43.1	61	30.6	2	4	292	0.00	29.976 
12:30	43.1	43.1	43.1	60	30.2	2	6	315	0.00	29.976 
12:35	43.3	43.3	43.3	60	30.4	2	6	315	0.00	29.976 
12:40	43.3	43.3	43.3	60	30.4	2	4	315	0.00	29.976 
12:45	43.6	43.6	43.6	60	30.6	2	5	270	0.00	29.978 
12:50	43.8	43.8	43.8	60	30.8	2	4	270	0.00	29.978 
12:55	43.8	43.8	43.8	59	30.4	3	5	270	0.00	29.978 
13:00	43.9	43.9	43.9	59	30.5	2	4	248	0.00	29.983 
13:05	43.9	43.9	43.9	59	30.5	3	5	292	0.00	29.983 
13:10	43.8	43.8	43.8	57	29.6	3	7	292	0.00	29.983 
13:15	43.8	43.8	43.8	58	30.0	3	6	270	0.00	29.987 
13:20	43.6	43.6	43.6	58	29.8	2	5	270	0.00	29.987 
13:25	43.6	43.6	43.6	58	29.8	3	6	270	0.00	29.987 
13:30	43.9	43.9	43.9	58	30.1	2	6	270	0.00	29.984 
13:35	44.3	44.3	44.3	58	30.5	2	4	270	0.00	29.984 
13:40	44.6	44.6	44.6	56	29.9	2	5	248	0.00	29.984 
13:45	44.8	44.8	44.8	57	30.5	2	5	338	0.00	29.986 
13:50	44.8	44.8	44.8	57	30.5	2	7	270	0.00	29.986 
13:55	44.5	44.5	44.5	57	30.2	2	7	270	0.00	29.986 
14:00	44.6	44.6	44.6	57	30.3	2	4	270	0.00	29.988 
14:05	44.3	44.3	44.3	56	29.6	3	6	292	0.00	29.988 
14:10	44.3	44.3	44.3	56	29.6	2	5	292	0.00	29.988 
14:15	44.6	44.6	44.6	57	30.3	2	4	292	0.00	29.998 
14:20	44.8	44.8	44.8	57	30.5	3	6	270	0.00	29.998 
14:25	44.9	44.9	44.9	56	30.2	3	7	270	0.00	29.998 
14:30	44.9	44.9	44.9	55	29.7	3	5	270	0.00	30.002 
14:35	45.1	45.1	45.1	56	30.4	2	4	248	0.00	30.002 
14:40	45.1	45.1	45.1	55	29.9	3	5	270	0.00	30.002 
14:45	44.9	44.9	44.9	55	29.7	3	5	270	0.00	30.011 
14:50	45.1	45.1	45.1	56	30.4	2	4	270	0.00	30.011 
14:55	45.1	45.1	45.1	55	29.9	2	5	270	0.00	30.011 
15:00	44.5	44.5	44.5	54	28.9	3	7	315	0.00	30.020 
15:05	43.9	43.9	43.9	54	28.3	3	5	315	0.00	30.020 
15:10	43.9	43.9	43.9	56	29.2	3	6	270	0.00	30.020 
15:15	43.9	43.9	43.9	57	29.7	3	6	248	0.00	30.028 
15:20	43.9	43.9	43.9	55	28.8	3	7	270	0.00	30.028 
15:25	43.9	41.8	43.9	55	28.8	4	6	270	0.00	30.028 
15:30	43.6	43.6	43.6	54	28.1	3	6	270	0.00	30.038 
15:35	43.6	43.6	43.6	55	28.5	2	5	270	0.00	30.038 
15:40	43.8	43.8	43.8	54	28.3	3	7	270	0.00	30.038 
15:45	43.3	43.3	43.3	55	28.2	3	6	338	0.00	30.048 
15:50	42.8	42.8	42.8	56	28.2	2	6	270	0.00	30.048 
15:55	42.3	42.3	42.3	57	28.2	2	4	270	0.00	30.048 
16:00	42.2	42.2	42.2	58	28.5	1	2	292	0.00	30.055 
16:05	42.5	42.5	42.5	57	28.4	2	6	292	0.00	30.055 
16:10	42.8	42.8	42.8	56	28.2	2	4	292	0.00	30.055 
16:15	43.1	43.1	43.1	56	28.5	2	6	292	0.00	30.056 
16:20	42.9	42.9	42.9	56	28.3	3	5	270	0.00	30.056 
16:25	42.8	42.8	42.8	56	28.2	2	5	270	0.00	30.056 
16:30	42.6	42.6	42.6	57	28.4	2	6	315	0.00	30.064 
16:35	42.5	42.5	42.5	57	28.4	2	4	270	0.00	30.064 
16:40	42.2	42.2	42.2	58	28.5	2	6	270	0.00	30.064 
16:45	42.1	42.1	42.1	58	28.4	2	4	338	0.00	30.068 
16:50	41.8	41.8	41.8	59	28.5	1	3	338	0.00	30.068 
16:55	41.5	41.5	41.5	60	28.7	1	3	292	0.00	30.068 
17:00	41.2	41.2	41.2	60	28.4	1	3	292	0.00	30.074 
17:05	40.9	40.9	40.9	61	28.5	1	3	292	0.00	30.074 
17:10	40.8	40.8	40.8	61	28.4	1	3	292	0.00	30.074 
17:15	40.3	40.3	40.3	62	28.3	1	4	270	0.00	30.087 
17:20	40.2	40.2	40.2	62	28.2	1	4	0	0.00	30.087 
17:25	40.1	40.1	40.1	62	28.1	1	4	248	0.00	30.087 
17:30	39.9	39.9	39.9	62	28.0	1	2	248	0.00	30.096 
17:35	39.6	39.6	39.6	62	27.7	1	2	248	0.00	30.096 
17:40	39.6	39.6	39.6	63	28.1	1	3	248	0.00	30.096 
17:45	39.5	39.5	39.5	62	27.6	1	3	315	0.00	30.104 
17:50	39.3	39.3	39.3	63	27.8	1	3	292	0.00	30.104 
17:55	39.3	39.3	39.3	63	27.8	1	3	292	0.00	30.104 
18:00	39.2	39.2	39.2	63	27.7	1	3	270	0.00	30.110 
18:05	39.1	39.1	39.1	64	28.0	1	2	338	0.00	30.110 
18:10	38.9	38.9	38.9	65	28.2	1	2	338	0.00	30.110 
18:15	38.9	38.9	38.9	65	28.2	1	2	338	0.00	30.121 
18:20	38.8	38.8	38.8	65	28.1	1	3	315	0.00	30.121 
18:25	38.8	38.8	38.8	65	28.1	1	3	315	0.00	30.121 
18:30	38.6	38.6	38.6	65	27.9	1	2	315	0.00	30.122 
18:35	38.5	38.5	38.5	66	28.1	0	2	315	0.00	30.122 
18:40	38.2	38.2	38.2	66	27.9	0	1	315	0.00	30.122 
18:45	38.0	38.0	38.0	66	27.7	0	2	315	0.00	30.125 
18:50	37.9	37.9	37.9	67	27.9	0	2	315	0.00	30.125 
18:55	37.6	37.6	37.6	67	27.7	0	2	315	0.00	30.125 
19:00	37.3	37.3	37.3	67	27.4	0	1	315	0.00	30.132 
19:05	37.2	37.2	37.2	68	27.6	0	1	315	0.00	30.132 
19:10	37.0	37.0	37.0	68	27.4	0	2	315	0.00	30.132 
19:15	36.9	36.9	36.9	68	27.3	0	0	---	0.00	30.140 
19:20	36.6	36.6	36.6	69	27.4	0	1	315	0.00	30.140 
19:25	36.5	36.5	36.5	69	27.3	0	1	315	0.00	30.140 
19:30	36.2	36.2	36.2	69	27.0	0	0	---	0.00	30.143 
19:35	35.9	35.9	35.9	70	27.1	0	0	---	0.00	30.143 
19:40	35.6	35.6	35.6	70	26.8	0	0	---	0.00	30.143 
19:45	35.3	35.3	35.3	71	26.9	0	0	---	0.00	30.147 
19:50	35.0	35.0	35.0	71	26.6	0	0	---	0.00	30.147 
19:55	34.6	34.6	34.6	72	26.5	0	0	---	0.00	30.147 
20:00	34.3	34.3	34.3	73	26.6	0	0	---	0.00	30.158 
20:05	34.1	34.1	34.1	73	26.4	0	0	---	0.00	30.158 
20:10	34.1	34.1	34.1	74	26.7	0	1	315	0.00	30.158 
20:15	34.3	34.3	34.3	74	26.9	0	1	315	0.00	30.158 
20:20	34.6	34.6	34.6	73	26.9	0	1	315	0.00	30.158 
20:25	34.6	34.6	34.6	73	26.9	0	1	315	0.00	30.158 
20:30	34.4	34.4	34.4	73	26.7	0	0	---	0.00	30.160 
20:35	34.3	34.3	34.3	73	26.6	0	0	---	0.00	30.160 
20:40	34.3	34.3	34.3	73	26.6	0	0	---	0.00	30.160 
20:45	34.1	34.1	34.1	73	26.4	0	1	315	0.00	30.159 
20:50	33.8	33.8	33.8	73	26.1	0	0	---	0.00	30.159 
20:55	33.7	33.7	33.7	74	26.3	0	0	---	0.00	30.159 
21:00	33.4	33.4	33.4	74	26.0	0	0	---	0.00	30.161 
21:05	33.2	33.2	33.2	74	25.8	0	0	---	0.00	30.161 
21:10	33.1	33.1	33.1	75	26.1	0	1	315	0.00	30.161 
21:15	33.1	33.1	33.1	75	26.1	0	0	---	0.00	30.171 
21:20	32.9	32.9	32.9	75	25.9	0	0	---	0.00	30.171 
21:25	32.8	32.8	32.8	76	26.1	0	1	315	0.00	30.171 
21:30	32.8	32.8	32.8	76	26.1	0	0	---	0.00	30.172 
21:35	32.7	32.7	32.7	76	26.0	0	0	---	0.00	30.172 
21:40	32.4	32.4	32.4	76	25.7	0	0	---	0.00	30.172 
21:45	32.2	32.2	32.2	76	25.5	0	0	---	0.00	30.178 
21:50	32.2	32.2	32.2	77	25.8	0	0	---	0.00	30.178 
21:55	32.1	32.1	32.1	77	25.7	0	0	---	0.00	30.178 
22:00	31.9	31.9	31.9	77	25.5	0	0	---	0.00	30.185 
22:05	31.8	31.8	31.8	77	25.4	0	0	---	0.00	30.185 
22:10	31.6	31.6	31.6	77	25.2	0	0	---	0.00	30.185 
22:15	31.5	31.5	31.5	78	25.4	0	1	315	0.00	30.190 
22:20	31.5	31.5	31.5	78	25.4	0	0	---	0.00	30.190 
22:25	31.3	31.3	31.3	78	25.3	0	0	---	0.00	30.190 
22:30	31.2	31.2	31.2	78	25.2	0	1	315	0.00	30.194 
22:35	31.0	31.0	31.0	78	25.0	0	0	---	0.00	30.194 
22:40	30.7	30.7	30.7	78	24.7	0	0	---	0.00	30.194 
22:45	30.6	30.6	30.6	78	24.6	0	0	---	0.00	30.204 
22:50	30.4	30.4	30.4	79	24.7	0	0	---	0.00	30.204 
22:55	30.1	30.1	30.1	79	24.4	0	0	---	0.00	30.204 
23:00	30.0	30.0	30.0	79	24.3	0	0	---	0.00	30.210 
23:05	30.0	30.0	30.0	80	24.6	0	0	---	0.00	30.210 
23:10	29.8	29.8	29.8	80	24.4	0	0	---	0.00	30.210 
23:15	29.7	29.7	29.7	80	24.3	0	0	---	0.00	30.215 
23:20	29.5	29.5	29.5	80	24.1	0	0	---	0.00	30.215 
23:25	29.4	29.4	29.4	81	24.3	0	0	---	0.00	30.215 
23:30	29.3	29.3	29.3	81	24.2	0	0	---	0.00	30.222 
23:35	29.1	29.1	29.1	81	24.0	0	0	---	0.00	30.222 
23:40	29.0	29.0	29.0	81	23.9	0	0	---	0.00	30.222 
23:45	29.0	29.0	29.0	82	24.2	0	0	---	0.00	30.225 
23:50	28.7	28.7	28.7	82	23.9	0	0	---	0.00	30.225 
23:55	28.5	28.5	28.5	82	23.7	0	0	---	0.00	30.225 

CoCoRaHS
IN-AL-39
A2 Web Hosting
Creative Commons License
GoDaddy
search engine by freefind advanced

loaded 2018-11-16 00:07:08 • last modified 2010-11-18 10:43:29
Privacy PolicyDisclaimer
• wx.awcolley.com is powered by PmWiki v.2002016 •
• all content (unless otherwise noted) © 2018 A W Colley